sensor_id;sensor_type;location;lat;lon;timestamp;P1;durP1;ratioP1;P2;durP2;ratioP2
56102;SDS011;41970;48.774;9.280;2023-06-22T00:00:54;12.03;;;6.60;;
56102;SDS011;41970;48.774;9.280;2023-06-22T00:03:21;13.10;;;7.50;;
56102;SDS011;41970;48.774;9.280;2023-06-22T00:05:49;7.90;;;7.03;;
56102;SDS011;41970;48.774;9.280;2023-06-22T00:08:16;8.10;;;6.63;;
56102;SDS011;41970;48.774;9.280;2023-06-22T00:10:42;9.53;;;6.97;;
56102;SDS011;41970;48.774;9.280;2023-06-22T00:13:08;8.77;;;7.97;;
56102;SDS011;41970;48.774;9.280;2023-06-22T00:15:36;6.80;;;6.20;;
56102;SDS011;41970;48.774;9.280;2023-06-22T00:18:03;7.90;;;6.87;;
56102;SDS011;41970;48.774;9.280;2023-06-22T00:20:30;9.30;;;7.97;;
56102;SDS011;41970;48.774;9.280;2023-06-22T00:22:57;7.17;;;6.57;;
56102;SDS011;41970;48.774;9.280;2023-06-22T00:25:25;7.93;;;6.53;;
56102;SDS011;41970;48.774;9.280;2023-06-22T00:27:51;8.30;;;7.40;;
56102;SDS011;41970;48.774;9.280;2023-06-22T00:30:17;7.07;;;6.33;;
56102;SDS011;41970;48.774;9.280;2023-06-22T00:32:44;8.73;;;7.50;;
56102;SDS011;41970;48.774;9.280;2023-06-22T00:35:11;11.83;;;8.10;;
56102;SDS011;41970;48.774;9.280;2023-06-22T00:37:39;8.43;;;7.57;;
56102;SDS011;41970;48.774;9.280;2023-06-22T00:40:08;7.83;;;7.13;;
56102;SDS011;41970;48.774;9.280;2023-06-22T00:42:37;8.50;;;7.70;;
56102;SDS011;41970;48.774;9.280;2023-06-22T00:45:03;7.57;;;6.80;;
56102;SDS011;41970;48.774;9.280;2023-06-22T00:47:30;9.13;;;8.23;;
56102;SDS011;41970;48.774;9.280;2023-06-22T00:49:56;8.77;;;7.30;;
56102;SDS011;41970;48.774;9.280;2023-06-22T00:52:22;7.17;;;6.47;;
56102;SDS011;41970;48.774;9.280;2023-06-22T00:54:52;7.50;;;6.80;;
56102;SDS011;41970;48.774;9.280;2023-06-22T00:57:18;11.17;;;7.43;;
56102;SDS011;41970;48.774;9.280;2023-06-22T00:59:45;7.73;;;6.93;;
56102;SDS011;41970;48.774;9.280;2023-06-22T01:02:13;9.13;;;8.43;;
56102;SDS011;41970;48.774;9.280;2023-06-22T01:04:40;8.90;;;7.47;;
56102;SDS011;41970;48.774;9.280;2023-06-22T01:09:57;11.13;;;7.87;;
56102;SDS011;41970;48.774;9.280;2023-06-22T01:12:24;7.43;;;6.83;;
56102;SDS011;41970;48.774;9.280;2023-06-22T01:14:58;6.97;;;6.37;;
56102;SDS011;41970;48.774;9.280;2023-06-22T01:17:36;7.53;;;6.83;;
56102;SDS011;41970;48.774;9.280;2023-06-22T01:20:06;7.43;;;6.73;;
56102;SDS011;41970;48.774;9.280;2023-06-22T01:22:43;9.30;;;7.00;;
56102;SDS011;41970;48.774;9.280;2023-06-22T01:25:41;7.33;;;6.73;;
56102;SDS011;41970;48.774;9.280;2023-06-22T01:30:49;9.90;;;7.83;;
56102;SDS011;41970;48.774;9.280;2023-06-22T01:33:28;9.63;;;6.90;;
56102;SDS011;41970;48.774;9.280;2023-06-22T01:35:56;7.90;;;7.17;;
56102;SDS011;41970;48.774;9.280;2023-06-22T01:38:22;7.60;;;6.90;;
56102;SDS011;41970;48.774;9.280;2023-06-22T01:40:49;7.67;;;6.97;;
56102;SDS011;41970;48.774;9.280;2023-06-22T01:43:16;7.60;;;6.97;;
56102;SDS011;41970;48.774;9.280;2023-06-22T01:45:42;8.60;;;7.80;;
56102;SDS011;41970;48.774;9.280;2023-06-22T01:48:08;8.60;;;7.10;;
56102;SDS011;41970;48.774;9.280;2023-06-22T01:50:33;8.03;;;7.33;;
56102;SDS011;41970;48.774;9.280;2023-06-22T01:52:59;7.37;;;6.67;;
56102;SDS011;41970;48.774;9.280;2023-06-22T01:55:25;8.03;;;7.33;;
56102;SDS011;41970;48.774;9.280;2023-06-22T01:57:50;6.90;;;6.30;;
56102;SDS011;41970;48.774;9.280;2023-06-22T02:00:20;7.60;;;6.90;;
56102;SDS011;41970;48.774;9.280;2023-06-22T02:02:52;7.70;;;6.67;;
56102;SDS011;41970;48.774;9.280;2023-06-22T02:05:24;7.13;;;6.43;;
56102;SDS011;41970;48.774;9.280;2023-06-22T02:07:57;9.97;;;7.17;;
56102;SDS011;41970;48.774;9.280;2023-06-22T02:10:29;9.33;;;8.40;;
56102;SDS011;41970;48.774;9.280;2023-06-22T02:12:57;7.97;;;6.90;;
56102;SDS011;41970;48.774;9.280;2023-06-22T02:15:25;7.60;;;6.83;;
56102;SDS011;41970;48.774;9.280;2023-06-22T02:17:52;7.97;;;7.13;;
56102;SDS011;41970;48.774;9.280;2023-06-22T02:20:17;7.67;;;6.90;;
56102;SDS011;41970;48.774;9.280;2023-06-22T02:22:43;8.50;;;6.70;;
56102;SDS011;41970;48.774;9.280;2023-06-22T02:25:09;7.57;;;6.87;;
56102;SDS011;41970;48.774;9.280;2023-06-22T02:27:35;7.30;;;6.70;;
56102;SDS011;41970;48.774;9.280;2023-06-22T02:30:00;8.10;;;7.30;;
56102;SDS011;41970;48.774;9.280;2023-06-22T02:32:26;7.87;;;6.97;;
56102;SDS011;41970;48.774;9.280;2023-06-22T02:34:52;9.13;;;7.30;;
56102;SDS011;41970;48.774;9.280;2023-06-22T02:37:18;8.97;;;7.80;;
56102;SDS011;41970;48.774;9.280;2023-06-22T02:39:43;8.30;;;7.57;;
56102;SDS011;41970;48.774;9.280;2023-06-22T02:42:09;8.73;;;7.90;;
56102;SDS011;41970;48.774;9.280;2023-06-22T02:44:35;9.50;;;8.70;;
56102;SDS011;41970;48.774;9.280;2023-06-22T02:47:01;8.40;;;7.60;;
56102;SDS011;41970;48.774;9.280;2023-06-22T02:49:27;9.17;;;8.13;;
56102;SDS011;41970;48.774;9.280;2023-06-22T02:51:53;8.27;;;7.40;;
56102;SDS011;41970;48.774;9.280;2023-06-22T02:54:20;9.43;;;8.53;;
56102;SDS011;41970;48.774;9.280;2023-06-22T02:56:46;9.20;;;8.00;;
56102;SDS011;41970;48.774;9.280;2023-06-22T02:59:13;9.57;;;8.60;;
56102;SDS011;41970;48.774;9.280;2023-06-22T03:01:38;7.40;;;6.70;;
56102;SDS011;41970;48.774;9.280;2023-06-22T03:04:08;8.47;;;7.67;;
56102;SDS011;41970;48.774;9.280;2023-06-22T03:06:34;9.47;;;7.03;;
56102;SDS011;41970;48.774;9.280;2023-06-22T03:09:01;7.70;;;7.00;;
56102;SDS011;41970;48.774;9.280;2023-06-22T03:11:32;7.57;;;6.80;;
56102;SDS011;41970;48.774;9.280;2023-06-22T03:13:59;10.07;;;8.63;;
56102;SDS011;41970;48.774;9.280;2023-06-22T03:16:26;9.57;;;8.57;;
56102;SDS011;41970;48.774;9.280;2023-06-22T03:18:51;8.67;;;7.80;;
56102;SDS011;41970;48.774;9.280;2023-06-22T03:21:22;6.73;;;6.13;;
56102;SDS011;41970;48.774;9.280;2023-06-22T03:23:48;10.20;;;7.80;;
56102;SDS011;41970;48.774;9.280;2023-06-22T03:26:16;7.53;;;6.83;;
56102;SDS011;41970;48.774;9.280;2023-06-22T03:28:43;8.30;;;7.47;;
56102;SDS011;41970;48.774;9.280;2023-06-22T03:31:08;8.40;;;7.67;;
56102;SDS011;41970;48.774;9.280;2023-06-22T03:33:34;8.83;;;7.93;;
56102;SDS011;41970;48.774;9.280;2023-06-22T03:36:00;9.23;;;8.40;;
56102;SDS011;41970;48.774;9.280;2023-06-22T03:38:27;9.37;;;7.83;;
56102;SDS011;41970;48.774;9.280;2023-06-22T03:40:53;8.30;;;7.60;;
56102;SDS011;41970;48.774;9.280;2023-06-22T03:43:19;9.80;;;7.93;;
56102;SDS011;41970;48.774;9.280;2023-06-22T03:45:44;10.50;;;7.00;;
56102;SDS011;41970;48.774;9.280;2023-06-22T03:48:11;8.93;;;8.20;;
56102;SDS011;41970;48.774;9.280;2023-06-22T03:50:37;8.80;;;7.60;;
56102;SDS011;41970;48.774;9.280;2023-06-22T03:53:03;8.73;;;7.87;;
56102;SDS011;41970;48.774;9.280;2023-06-22T03:55:29;8.43;;;7.53;;
56102;SDS011;41970;48.774;9.280;2023-06-22T03:57:55;8.77;;;6.70;;
56102;SDS011;41970;48.774;9.280;2023-06-22T04:00:22;8.10;;;7.30;;
56102;SDS011;41970;48.774;9.280;2023-06-22T04:02:48;8.53;;;7.70;;
56102;SDS011;41970;48.774;9.280;2023-06-22T04:05:14;8.30;;;6.57;;
56102;SDS011;41970;48.774;9.280;2023-06-22T04:07:42;8.43;;;7.17;;
56102;SDS011;41970;48.774;9.280;2023-06-22T04:10:08;7.97;;;7.17;;
56102;SDS011;41970;48.774;9.280;2023-06-22T04:12:34;9.50;;;7.60;;
56102;SDS011;41970;48.774;9.280;2023-06-22T04:14:59;8.27;;;7.43;;
56102;SDS011;41970;48.774;9.280;2023-06-22T04:17:25;8.13;;;7.40;;
56102;SDS011;41970;48.774;9.280;2023-06-22T04:19:51;8.00;;;7.17;;
56102;SDS011;41970;48.774;9.280;2023-06-22T04:22:17;9.37;;;8.47;;
56102;SDS011;41970;48.774;9.280;2023-06-22T04:24:43;12.93;;;7.80;;
56102;SDS011;41970;48.774;9.280;2023-06-22T04:27:09;8.80;;;8.00;;
56102;SDS011;41970;48.774;9.280;2023-06-22T04:29:35;8.87;;;7.97;;
56102;SDS011;41970;48.774;9.280;2023-06-22T04:32:01;9.60;;;8.17;;
56102;SDS011;41970;48.774;9.280;2023-06-22T04:34:30;8.57;;;7.77;;
56102;SDS011;41970;48.774;9.280;2023-06-22T04:36:56;9.13;;;8.23;;
56102;SDS011;41970;48.774;9.280;2023-06-22T04:39:22;8.77;;;7.73;;
56102;SDS011;41970;48.774;9.280;2023-06-22T04:41:49;8.60;;;7.80;;
56102;SDS011;41970;48.774;9.280;2023-06-22T04:44:19;10.77;;;7.20;;
56102;SDS011;41970;48.774;9.280;2023-06-22T04:46:51;11.60;;;7.97;;
56102;SDS011;41970;48.774;9.280;2023-06-22T04:49:29;7.83;;;7.03;;
56102;SDS011;41970;48.774;9.280;2023-06-22T04:52:00;8.80;;;7.90;;
56102;SDS011;41970;48.774;9.280;2023-06-22T04:54:26;14.23;;;8.10;;
56102;SDS011;41970;48.774;9.280;2023-06-22T04:56:52;6.83;;;6.23;;
56102;SDS011;41970;48.774;9.280;2023-06-22T04:59:24;7.00;;;6.30;;
56102;SDS011;41970;48.774;9.280;2023-06-22T05:01:53;10.10;;;7.10;;
56102;SDS011;41970;48.774;9.280;2023-06-22T05:04:20;8.13;;;7.40;;
56102;SDS011;41970;48.774;9.280;2023-06-22T05:06:48;10.13;;;7.80;;
56102;SDS011;41970;48.774;9.280;2023-06-22T05:09:14;8.97;;;7.23;;
56102;SDS011;41970;48.774;9.280;2023-06-22T05:11:40;9.60;;;7.70;;
56102;SDS011;41970;48.774;9.280;2023-06-22T05:14:06;7.27;;;6.50;;
56102;SDS011;41970;48.774;9.280;2023-06-22T05:16:32;7.67;;;6.93;;
56102;SDS011;41970;48.774;9.280;2023-06-22T05:18:58;7.93;;;7.13;;
56102;SDS011;41970;48.774;9.280;2023-06-22T05:21:24;10.50;;;8.20;;
56102;SDS011;41970;48.774;9.280;2023-06-22T05:23:52;8.27;;;7.47;;
56102;SDS011;41970;48.774;9.280;2023-06-22T05:26:19;10.60;;;7.20;;
56102;SDS011;41970;48.774;9.280;2023-06-22T05:28:45;10.80;;;7.80;;
56102;SDS011;41970;48.774;9.280;2023-06-22T05:31:12;8.23;;;6.90;;
56102;SDS011;41970;48.774;9.280;2023-06-22T05:33:40;8.03;;;6.93;;
56102;SDS011;41970;48.774;9.280;2023-06-22T05:36:09;8.87;;;7.23;;
56102;SDS011;41970;48.774;9.280;2023-06-22T05:38:35;8.30;;;7.60;;
56102;SDS011;41970;48.774;9.280;2023-06-22T05:41:01;13.27;;;7.93;;
56102;SDS011;41970;48.774;9.280;2023-06-22T05:43:27;7.63;;;6.17;;
56102;SDS011;41970;48.774;9.280;2023-06-22T05:45:53;10.07;;;7.53;;
56102;SDS011;41970;48.774;9.280;2023-06-22T05:48:20;7.87;;;6.27;;
56102;SDS011;41970;48.774;9.280;2023-06-22T05:50:46;9.30;;;8.17;;
56102;SDS011;41970;48.774;9.280;2023-06-22T05:53:12;8.60;;;7.30;;
56102;SDS011;41970;48.774;9.280;2023-06-22T05:55:38;9.50;;;7.63;;
56102;SDS011;41970;48.774;9.280;2023-06-22T05:58:04;8.77;;;7.97;;
56102;SDS011;41970;48.774;9.280;2023-06-22T06:00:30;9.83;;;7.60;;
56102;SDS011;41970;48.774;9.280;2023-06-22T06:02:56;10.53;;;7.77;;
56102;SDS011;41970;48.774;9.280;2023-06-22T06:05:22;6.70;;;6.10;;
56102;SDS011;41970;48.774;9.280;2023-06-22T06:07:50;7.00;;;6.30;;
56102;SDS011;41970;48.774;9.280;2023-06-22T06:10:16;6.20;;;5.37;;
56102;SDS011;41970;48.774;9.280;2023-06-22T06:12:42;7.10;;;6.00;;
56102;SDS011;41970;48.774;9.280;2023-06-22T06:15:08;6.93;;;6.23;;
56102;SDS011;41970;48.774;9.280;2023-06-22T06:17:34;5.70;;;5.20;;
56102;SDS011;41970;48.774;9.280;2023-06-22T06:19:59;7.70;;;7.00;;
56102;SDS011;41970;48.774;9.280;2023-06-22T06:22:26;6.97;;;5.17;;
56102;SDS011;41970;48.774;9.280;2023-06-22T06:24:51;9.90;;;6.77;;
56102;SDS011;41970;48.774;9.280;2023-06-22T06:27:17;6.87;;;5.63;;
56102;SDS011;41970;48.774;9.280;2023-06-22T06:29:43;6.57;;;5.93;;
56102;SDS011;41970;48.774;9.280;2023-06-22T06:32:13;7.90;;;6.03;;
56102;SDS011;41970;48.774;9.280;2023-06-22T06:34:38;6.60;;;6.07;;
56102;SDS011;41970;48.774;9.280;2023-06-22T06:37:05;6.20;;;5.23;;
56102;SDS011;41970;48.774;9.280;2023-06-22T06:39:33;6.67;;;5.97;;
56102;SDS011;41970;48.774;9.280;2023-06-22T06:42:00;8.43;;;6.60;;
56102;SDS011;41970;48.774;9.280;2023-06-22T06:44:25;7.23;;;6.10;;
56102;SDS011;41970;48.774;9.280;2023-06-22T06:46:51;6.13;;;5.53;;
56102;SDS011;41970;48.774;9.280;2023-06-22T06:49:17;7.37;;;6.67;;
56102;SDS011;41970;48.774;9.280;2023-06-22T06:51:42;6.67;;;5.90;;
56102;SDS011;41970;48.774;9.280;2023-06-22T06:54:08;8.43;;;6.60;;
56102;SDS011;41970;48.774;9.280;2023-06-22T06:56:34;7.97;;;6.40;;
56102;SDS011;41970;48.774;9.280;2023-06-22T06:59:00;8.00;;;6.70;;
56102;SDS011;41970;48.774;9.280;2023-06-22T07:01:26;6.90;;;6.20;;
56102;SDS011;41970;48.774;9.280;2023-06-22T07:03:52;6.60;;;6.00;;
56102;SDS011;41970;48.774;9.280;2023-06-22T07:06:18;7.87;;;7.07;;
56102;SDS011;41970;48.774;9.280;2023-06-22T07:08:44;6.67;;;5.90;;
56102;SDS011;41970;48.774;9.280;2023-06-22T07:11:10;6.50;;;5.50;;
56102;SDS011;41970;48.774;9.280;2023-06-22T07:13:36;6.00;;;5.43;;
56102;SDS011;41970;48.774;9.280;2023-06-22T07:16:02;6.67;;;5.53;;
56102;SDS011;41970;48.774;9.280;2023-06-22T07:18:27;6.17;;;5.33;;
56102;SDS011;41970;48.774;9.280;2023-06-22T07:20:55;8.43;;;6.50;;
56102;SDS011;41970;48.774;9.280;2023-06-22T07:23:21;6.20;;;5.37;;
56102;SDS011;41970;48.774;9.280;2023-06-22T07:25:47;6.03;;;5.00;;
56102;SDS011;41970;48.774;9.280;2023-06-22T07:28:12;6.40;;;5.70;;
56102;SDS011;41970;48.774;9.280;2023-06-22T07:30:38;7.63;;;5.87;;
56102;SDS011;41970;48.774;9.280;2023-06-22T07:33:04;6.37;;;5.30;;
56102;SDS011;41970;48.774;9.280;2023-06-22T07:35:33;7.00;;;5.90;;
56102;SDS011;41970;48.774;9.280;2023-06-22T07:37:58;7.83;;;4.90;;
56102;SDS011;41970;48.774;9.280;2023-06-22T07:40:24;4.87;;;4.40;;
56102;SDS011;41970;48.774;9.280;2023-06-22T07:42:50;6.40;;;5.73;;
56102;SDS011;41970;48.774;9.280;2023-06-22T07:45:17;5.93;;;5.33;;
56102;SDS011;41970;48.774;9.280;2023-06-22T07:47:43;7.43;;;5.87;;
56102;SDS011;41970;48.774;9.280;2023-06-22T07:50:09;10.80;;;5.60;;
56102;SDS011;41970;48.774;9.280;2023-06-22T07:52:35;6.33;;;5.53;;
56102;SDS011;41970;48.774;9.280;2023-06-22T07:55:01;5.83;;;5.23;;
56102;SDS011;41970;48.774;9.280;2023-06-22T07:57:27;7.83;;;4.97;;
56102;SDS011;41970;48.774;9.280;2023-06-22T08:00:02;5.17;;;4.57;;
56102;SDS011;41970;48.774;9.280;2023-06-22T08:02:38;6.47;;;5.33;;
56102;SDS011;41970;48.774;9.280;2023-06-22T08:05:05;8.73;;;5.30;;
56102;SDS011;41970;48.774;9.280;2023-06-22T08:07:34;6.33;;;4.83;;
56102;SDS011;41970;48.774;9.280;2023-06-22T08:10:02;7.67;;;5.53;;
56102;SDS011;41970;48.774;9.280;2023-06-22T08:12:28;5.30;;;4.80;;
56102;SDS011;41970;48.774;9.280;2023-06-22T08:14:53;6.10;;;4.63;;
56102;SDS011;41970;48.774;9.280;2023-06-22T08:17:19;6.80;;;4.10;;
56102;SDS011;41970;48.774;9.280;2023-06-22T08:19:45;7.80;;;5.20;;
56102;SDS011;41970;48.774;9.280;2023-06-22T08:22:12;7.83;;;4.97;;
56102;SDS011;41970;48.774;9.280;2023-06-22T08:24:38;9.33;;;5.83;;
56102;SDS011;41970;48.774;9.280;2023-06-22T08:27:05;7.47;;;5.17;;
56102;SDS011;41970;48.774;9.280;2023-06-22T08:29:34;8.70;;;5.23;;
56102;SDS011;41970;48.774;9.280;2023-06-22T08:32:01;5.90;;;5.30;;
56102;SDS011;41970;48.774;9.280;2023-06-22T08:34:26;8.50;;;5.23;;
56102;SDS011;41970;48.774;9.280;2023-06-22T08:36:53;6.47;;;5.00;;
56102;SDS011;41970;48.774;9.280;2023-06-22T08:39:19;5.10;;;4.53;;
56102;SDS011;41970;48.774;9.280;2023-06-22T08:41:46;5.80;;;5.20;;
56102;SDS011;41970;48.774;9.280;2023-06-22T08:44:12;10.27;;;5.10;;
56102;SDS011;41970;48.774;9.280;2023-06-22T08:46:38;10.43;;;5.47;;
56102;SDS011;41970;48.774;9.280;2023-06-22T08:49:05;8.03;;;4.93;;
56102;SDS011;41970;48.774;9.280;2023-06-22T08:51:32;7.63;;;4.63;;
56102;SDS011;41970;48.774;9.280;2023-06-22T08:53:57;7.33;;;5.47;;
56102;SDS011;41970;48.774;9.280;2023-06-22T08:56:23;8.23;;;5.13;;
56102;SDS011;41970;48.774;9.280;2023-06-22T08:58:49;7.63;;;5.20;;
56102;SDS011;41970;48.774;9.280;2023-06-22T09:01:14;6.77;;;4.77;;
56102;SDS011;41970;48.774;9.280;2023-06-22T09:03:40;10.00;;;5.43;;
56102;SDS011;41970;48.774;9.280;2023-06-22T09:06:06;8.10;;;4.97;;
56102;SDS011;41970;48.774;9.280;2023-06-22T09:08:34;10.93;;;5.23;;
56102;SDS011;41970;48.774;9.280;2023-06-22T09:11:00;10.53;;;5.57;;
56102;SDS011;41970;48.774;9.280;2023-06-22T09:13:30;7.83;;;6.27;;
56102;SDS011;41970;48.774;9.280;2023-06-22T09:15:56;6.57;;;4.93;;
56102;SDS011;41970;48.774;9.280;2023-06-22T09:18:22;11.80;;;5.90;;
56102;SDS011;41970;48.774;9.280;2023-06-22T09:20:48;10.53;;;5.80;;
56102;SDS011;41970;48.774;9.280;2023-06-22T09:23:14;8.30;;;6.10;;
56102;SDS011;41970;48.774;9.280;2023-06-22T09:25:40;9.90;;;6.67;;
56102;SDS011;41970;48.774;9.280;2023-06-22T09:28:06;8.00;;;6.30;;
56102;SDS011;41970;48.774;9.280;2023-06-22T09:30:31;10.43;;;5.70;;
56102;SDS011;41970;48.774;9.280;2023-06-22T09:32:58;8.30;;;6.63;;
56102;SDS011;41970;48.774;9.280;2023-06-22T09:35:25;9.87;;;6.07;;
56102;SDS011;41970;48.774;9.280;2023-06-22T09:37:50;7.30;;;5.73;;
56102;SDS011;41970;48.774;9.280;2023-06-22T09:40:16;11.30;;;5.43;;
56102;SDS011;41970;48.774;9.280;2023-06-22T09:42:42;11.13;;;6.93;;
56102;SDS011;41970;48.774;9.280;2023-06-22T09:45:08;7.20;;;5.70;;
56102;SDS011;41970;48.774;9.280;2023-06-22T09:47:34;8.80;;;5.20;;
56102;SDS011;41970;48.774;9.280;2023-06-22T09:50:00;10.30;;;5.53;;
56102;SDS011;41970;48.774;9.280;2023-06-22T09:52:25;10.67;;;5.50;;
56102;SDS011;41970;48.774;9.280;2023-06-22T09:54:51;6.37;;;5.60;;
56102;SDS011;41970;48.774;9.280;2023-06-22T09:57:17;8.10;;;5.63;;
56102;SDS011;41970;48.774;9.280;2023-06-22T09:59:43;11.70;;;5.87;;
56102;SDS011;41970;48.774;9.280;2023-06-22T10:02:08;10.07;;;6.50;;
56102;SDS011;41970;48.774;9.280;2023-06-22T10:04:34;6.13;;;5.53;;
56102;SDS011;41970;48.774;9.280;2023-06-22T10:07:01;6.60;;;5.87;;
56102;SDS011;41970;48.774;9.280;2023-06-22T10:09:27;9.87;;;6.30;;
56102;SDS011;41970;48.774;9.280;2023-06-22T10:11:53;10.57;;;5.87;;
56102;SDS011;41970;48.774;9.280;2023-06-22T10:14:19;7.50;;;5.93;;
56102;SDS011;41970;48.774;9.280;2023-06-22T10:16:44;9.43;;;6.50;;
56102;SDS011;41970;48.774;9.280;2023-06-22T10:19:10;9.47;;;6.13;;
56102;SDS011;41970;48.774;9.280;2023-06-22T10:21:36;8.40;;;6.20;;
56102;SDS011;41970;48.774;9.280;2023-06-22T10:24:03;9.50;;;6.93;;
56102;SDS011;41970;48.774;9.280;2023-06-22T10:26:34;10.87;;;6.23;;
56102;SDS011;41970;48.774;9.280;2023-06-22T10:29:01;10.73;;;6.27;;
56102;SDS011;41970;48.774;9.280;2023-06-22T10:31:27;9.80;;;6.17;;
56102;SDS011;41970;48.774;9.280;2023-06-22T10:33:53;6.00;;;5.40;;
56102;SDS011;41970;48.774;9.280;2023-06-22T10:36:20;13.10;;;6.27;;
56102;SDS011;41970;48.774;9.280;2023-06-22T10:38:46;13.40;;;6.70;;
56102;SDS011;41970;48.774;9.280;2023-06-22T10:41:13;9.43;;;5.90;;
56102;SDS011;41970;48.774;9.280;2023-06-22T10:43:39;6.53;;;5.93;;
56102;SDS011;41970;48.774;9.280;2023-06-22T10:46:06;9.77;;;6.10;;
56102;SDS011;41970;48.774;9.280;2023-06-22T10:48:32;11.73;;;5.57;;
56102;SDS011;41970;48.774;9.280;2023-06-22T10:50:57;10.00;;;7.13;;
56102;SDS011;41970;48.774;9.280;2023-06-22T10:53:23;7.63;;;6.00;;
56102;SDS011;41970;48.774;9.280;2023-06-22T10:55:49;7.17;;;6.00;;
56102;SDS011;41970;48.774;9.280;2023-06-22T10:58:17;10.27;;;6.83;;
56102;SDS011;41970;48.774;9.280;2023-06-22T11:00:44;9.67;;;5.73;;
56102;SDS011;41970;48.774;9.280;2023-06-22T11:03:10;7.47;;;5.97;;
56102;SDS011;41970;48.774;9.280;2023-06-22T11:05:37;8.13;;;6.20;;
56102;SDS011;41970;48.774;9.280;2023-06-22T11:08:02;7.60;;;6.20;;
56102;SDS011;41970;48.774;9.280;2023-06-22T11:10:28;7.40;;;5.83;;
56102;SDS011;41970;48.774;9.280;2023-06-22T11:12:54;10.43;;;5.90;;
56102;SDS011;41970;48.774;9.280;2023-06-22T11:15:21;11.17;;;6.90;;
56102;SDS011;41970;48.774;9.280;2023-06-22T11:17:46;8.83;;;5.70;;
56102;SDS011;41970;48.774;9.280;2023-06-22T11:20:12;10.23;;;6.67;;
56102;SDS011;41970;48.774;9.280;2023-06-22T11:22:38;8.13;;;6.30;;
56102;SDS011;41970;48.774;9.280;2023-06-22T11:25:07;9.87;;;6.10;;
56102;SDS011;41970;48.774;9.280;2023-06-22T11:27:33;7.30;;;6.70;;
56102;SDS011;41970;48.774;9.280;2023-06-22T11:30:00;7.03;;;5.90;;
56102;SDS011;41970;48.774;9.280;2023-06-22T11:32:26;7.30;;;6.53;;
56102;SDS011;41970;48.774;9.280;2023-06-22T11:34:52;11.43;;;6.43;;
56102;SDS011;41970;48.774;9.280;2023-06-22T11:37:18;9.37;;;7.30;;
56102;SDS011;41970;48.774;9.280;2023-06-22T11:39:43;6.93;;;5.70;;
56102;SDS011;41970;48.774;9.280;2023-06-22T11:42:09;10.83;;;6.80;;
56102;SDS011;41970;48.774;9.280;2023-06-22T11:44:35;8.10;;;6.23;;
56102;SDS011;41970;48.774;9.280;2023-06-22T11:47:01;12.40;;;6.67;;
56102;SDS011;41970;48.774;9.280;2023-06-22T11:49:30;8.40;;;6.50;;
56102;SDS011;41970;48.774;9.280;2023-06-22T11:51:56;7.30;;;6.60;;
56102;SDS011;41970;48.774;9.280;2023-06-22T11:54:21;8.83;;;6.53;;
56102;SDS011;41970;48.774;9.280;2023-06-22T11:56:47;10.10;;;7.10;;
56102;SDS011;41970;48.774;9.280;2023-06-22T11:59:13;10.90;;;7.10;;
56102;SDS011;41970;48.774;9.280;2023-06-22T12:01:38;8.10;;;7.40;;
56102;SDS011;41970;48.774;9.280;2023-06-22T12:04:04;11.83;;;7.87;;
56102;SDS011;41970;48.774;9.280;2023-06-22T12:06:31;8.10;;;6.73;;
56102;SDS011;41970;48.774;9.280;2023-06-22T12:08:58;10.77;;;6.27;;
56102;SDS011;41970;48.774;9.280;2023-06-22T12:11:24;8.07;;;7.27;;
56102;SDS011;41970;48.774;9.280;2023-06-22T12:13:50;10.87;;;6.73;;
56102;SDS011;41970;48.774;9.280;2023-06-22T12:16:16;10.13;;;7.43;;
56102;SDS011;41970;48.774;9.280;2023-06-22T12:18:42;7.27;;;6.30;;
56102;SDS011;41970;48.774;9.280;2023-06-22T12:21:08;10.10;;;6.67;;
56102;SDS011;41970;48.774;9.280;2023-06-22T12:23:33;7.63;;;6.83;;
56102;SDS011;41970;48.774;9.280;2023-06-22T12:26:00;12.50;;;6.57;;
56102;SDS011;41970;48.774;9.280;2023-06-22T12:28:26;13.30;;;6.73;;
56102;SDS011;41970;48.774;9.280;2023-06-22T12:30:52;7.87;;;5.63;;
56102;SDS011;41970;48.774;9.280;2023-06-22T12:33:18;9.43;;;6.80;;
56102;SDS011;41970;48.774;9.280;2023-06-22T12:35:43;8.87;;;6.87;;
56102;SDS011;41970;48.774;9.280;2023-06-22T12:38:10;10.97;;;6.40;;
56102;SDS011;41970;48.774;9.280;2023-06-22T12:40:36;12.30;;;6.30;;
56102;SDS011;41970;48.774;9.280;2023-06-22T12:43:02;15.13;;;7.60;;
56102;SDS011;41970;48.774;9.280;2023-06-22T12:45:27;8.10;;;6.87;;
56102;SDS011;41970;48.774;9.280;2023-06-22T12:47:56;16.10;;;7.40;;
56102;SDS011;41970;48.774;9.280;2023-06-22T12:50:22;9.47;;;7.37;;
56102;SDS011;41970;48.774;9.280;2023-06-22T12:52:48;8.33;;;6.43;;
56102;SDS011;41970;48.774;9.280;2023-06-22T12:55:15;10.53;;;6.23;;
56102;SDS011;41970;48.774;9.280;2023-06-22T12:57:41;8.77;;;6.23;;
56102;SDS011;41970;48.774;9.280;2023-06-22T13:00:07;8.00;;;6.70;;
56102;SDS011;41970;48.774;9.280;2023-06-22T13:02:35;14.60;;;6.87;;
56102;SDS011;41970;48.774;9.280;2023-06-22T13:05:02;12.03;;;6.50;;
56102;SDS011;41970;48.774;9.280;2023-06-22T13:07:30;12.37;;;7.10;;
56102;SDS011;41970;48.774;9.280;2023-06-22T13:09:56;10.60;;;6.47;;
56102;SDS011;41970;48.774;9.280;2023-06-22T13:12:21;8.33;;;6.20;;
56102;SDS011;41970;48.774;9.280;2023-06-22T13:14:48;9.40;;;6.87;;
56102;SDS011;41970;48.774;9.280;2023-06-22T13:17:13;5.73;;;5.13;;
56102;SDS011;41970;48.774;9.280;2023-06-22T13:19:40;10.60;;;6.20;;
56102;SDS011;41970;48.774;9.280;2023-06-22T13:22:09;23.67;;;7.30;;
56102;SDS011;41970;48.774;9.280;2023-06-22T13:24:58;14.37;;;6.37;;
56102;SDS011;41970;48.774;9.280;2023-06-22T13:27:24;7.03;;;5.60;;
56102;SDS011;41970;48.774;9.280;2023-06-22T13:29:50;7.40;;;5.90;;
56102;SDS011;41970;48.774;9.280;2023-06-22T13:32:17;9.00;;;6.50;;
56102;SDS011;41970;48.774;9.280;2023-06-22T13:34:47;9.53;;;6.00;;
56102;SDS011;41970;48.774;9.280;2023-06-22T13:37:13;12.87;;;6.50;;
56102;SDS011;41970;48.774;9.280;2023-06-22T13:39:39;13.53;;;6.43;;
56102;SDS011;41970;48.774;9.280;2023-06-22T13:42:05;11.80;;;6.20;;
56102;SDS011;41970;48.774;9.280;2023-06-22T13:44:31;8.27;;;5.70;;
56102;SDS011;41970;48.774;9.280;2023-06-22T13:46:57;8.97;;;6.43;;
56102;SDS011;41970;48.774;9.280;2023-06-22T13:49:22;10.60;;;6.47;;
56102;SDS011;41970;48.774;9.280;2023-06-22T13:51:48;10.93;;;7.20;;
56102;SDS011;41970;48.774;9.280;2023-06-22T13:54:16;12.00;;;7.40;;
56102;SDS011;41970;48.774;9.280;2023-06-22T13:56:42;9.03;;;6.00;;
56102;SDS011;41970;48.774;9.280;2023-06-22T13:59:07;7.17;;;6.40;;
56102;SDS011;41970;48.774;9.280;2023-06-22T14:01:36;8.17;;;6.87;;
56102;SDS011;41970;48.774;9.280;2023-06-22T14:04:04;10.50;;;7.13;;
56102;SDS011;41970;48.774;9.280;2023-06-22T14:06:30;10.50;;;7.13;;
56102;SDS011;41970;48.774;9.280;2023-06-22T14:08:55;9.93;;;7.33;;
56102;SDS011;41970;48.774;9.280;2023-06-22T14:11:21;8.20;;;5.73;;
56102;SDS011;41970;48.774;9.280;2023-06-22T14:13:47;11.60;;;6.53;;
56102;SDS011;41970;48.774;9.280;2023-06-22T14:16:13;11.60;;;6.60;;
56102;SDS011;41970;48.774;9.280;2023-06-22T14:18:39;6.60;;;5.90;;
56102;SDS011;41970;48.774;9.280;2023-06-22T14:21:04;11.23;;;6.33;;
56102;SDS011;41970;48.774;9.280;2023-06-22T14:23:30;12.77;;;6.50;;
56102;SDS011;41970;48.774;9.280;2023-06-22T14:25:56;8.17;;;5.70;;
56102;SDS011;41970;48.774;9.280;2023-06-22T14:28:22;6.67;;;5.80;;
56102;SDS011;41970;48.774;9.280;2023-06-22T14:30:52;7.30;;;5.27;;
56102;SDS011;41970;48.774;9.280;2023-06-22T14:33:18;10.97;;;5.83;;
56102;SDS011;41970;48.774;9.280;2023-06-22T14:35:45;9.00;;;5.90;;
56102;SDS011;41970;48.774;9.280;2023-06-22T14:38:11;10.10;;;5.20;;
56102;SDS011;41970;48.774;9.280;2023-06-22T14:40:36;9.73;;;5.77;;
56102;SDS011;41970;48.774;9.280;2023-06-22T14:43:02;9.90;;;5.40;;
56102;SDS011;41970;48.774;9.280;2023-06-22T14:45:28;6.73;;;5.33;;
56102;SDS011;41970;48.774;9.280;2023-06-22T14:47:54;8.53;;;5.90;;